sensor_id;sensor_type;location;lat;lon;timestamp;P1;durP1;ratioP1;P2;durP2;ratioP2
12208;SDS011;6167;43.080;25.634;2024-03-02T00:01:36;34.17;;;23.83;;
12208;SDS011;6167;43.080;25.634;2024-03-02T00:04:03;29.97;;;22.00;;
12208;SDS011;6167;43.080;25.634;2024-03-02T00:06:31;32.10;;;22.13;;
12208;SDS011;6167;43.080;25.634;2024-03-02T00:08:58;28.63;;;21.93;;
12208;SDS011;6167;43.080;25.634;2024-03-02T00:11:25;28.43;;;21.27;;
12208;SDS011;6167;43.080;25.634;2024-03-02T00:13:52;26.90;;;20.97;;
12208;SDS011;6167;43.080;25.634;2024-03-02T00:16:19;31.07;;;22.27;;
12208;SDS011;6167;43.080;25.634;2024-03-02T00:18:47;32.17;;;22.47;;
12208;SDS011;6167;43.080;25.634;2024-03-02T00:21:15;32.43;;;22.63;;
12208;SDS011;6167;43.080;25.634;2024-03-02T00:23:45;29.27;;;20.77;;
12208;SDS011;6167;43.080;25.634;2024-03-02T00:26:12;32.67;;;21.87;;
12208;SDS011;6167;43.080;25.634;2024-03-02T00:28:40;29.83;;;21.77;;
12208;SDS011;6167;43.080;25.634;2024-03-02T00:31:09;31.33;;;22.27;;
12208;SDS011;6167;43.080;25.634;2024-03-02T00:33:39;34.40;;;22.60;;
12208;SDS011;6167;43.080;25.634;2024-03-02T00:36:10;31.53;;;22.03;;
12208;SDS011;6167;43.080;25.634;2024-03-02T00:38:42;30.43;;;21.47;;
12208;SDS011;6167;43.080;25.634;2024-03-02T00:41:15;29.80;;;21.07;;
12208;SDS011;6167;43.080;25.634;2024-03-02T00:43:47;30.10;;;21.87;;
12208;SDS011;6167;43.080;25.634;2024-03-02T00:46:23;29.33;;;21.00;;
12208;SDS011;6167;43.080;25.634;2024-03-02T00:48:54;32.33;;;22.30;;
12208;SDS011;6167;43.080;25.634;2024-03-02T00:51:24;28.87;;;21.33;;
12208;SDS011;6167;43.080;25.634;2024-03-02T00:53:53;29.43;;;21.90;;
12208;SDS011;6167;43.080;25.634;2024-03-02T00:56:21;30.63;;;21.47;;
12208;SDS011;6167;43.080;25.634;2024-03-02T00:58:49;30.63;;;21.90;;
12208;SDS011;6167;43.080;25.634;2024-03-02T01:01:16;30.67;;;21.80;;
12208;SDS011;6167;43.080;25.634;2024-03-02T01:03:44;31.23;;;22.20;;
12208;SDS011;6167;43.080;25.634;2024-03-02T01:06:11;32.33;;;21.50;;
12208;SDS011;6167;43.080;25.634;2024-03-02T01:08:40;27.60;;;21.17;;
12208;SDS011;6167;43.080;25.634;2024-03-02T01:11:07;30.10;;;21.53;;
12208;SDS011;6167;43.080;25.634;2024-03-02T01:13:34;29.43;;;22.13;;
12208;SDS011;6167;43.080;25.634;2024-03-02T01:16:01;30.20;;;21.97;;
12208;SDS011;6167;43.080;25.634;2024-03-02T01:18:30;32.53;;;22.83;;
12208;SDS011;6167;43.080;25.634;2024-03-02T01:20:57;31.13;;;22.53;;
12208;SDS011;6167;43.080;25.634;2024-03-02T01:23:24;30.00;;;22.07;;
12208;SDS011;6167;43.080;25.634;2024-03-02T01:25:52;31.20;;;22.00;;
12208;SDS011;6167;43.080;25.634;2024-03-02T01:28:20;29.67;;;21.20;;
12208;SDS011;6167;43.080;25.634;2024-03-02T01:30:47;31.70;;;21.87;;
12208;SDS011;6167;43.080;25.634;2024-03-02T01:33:14;30.30;;;21.73;;
12208;SDS011;6167;43.080;25.634;2024-03-02T01:35:41;28.63;;;21.33;;
12208;SDS011;6167;43.080;25.634;2024-03-02T01:38:08;28.73;;;19.77;;
12208;SDS011;6167;43.080;25.634;2024-03-02T01:40:35;29.10;;;19.43;;
12208;SDS011;6167;43.080;25.634;2024-03-02T01:43:04;29.67;;;20.47;;
12208;SDS011;6167;43.080;25.634;2024-03-02T01:45:32;31.10;;;20.70;;
12208;SDS011;6167;43.080;25.634;2024-03-02T01:48:01;29.10;;;21.33;;
12208;SDS011;6167;43.080;25.634;2024-03-02T01:50:28;28.70;;;21.17;;
12208;SDS011;6167;43.080;25.634;2024-03-02T01:52:57;25.60;;;18.80;;
12208;SDS011;6167;43.080;25.634;2024-03-02T01:55:25;29.00;;;21.47;;
12208;SDS011;6167;43.080;25.634;2024-03-02T01:57:52;26.97;;;20.83;;
12208;SDS011;6167;43.080;25.634;2024-03-02T02:00:21;23.47;;;18.10;;
12208;SDS011;6167;43.080;25.634;2024-03-02T02:02:51;26.73;;;18.93;;
12208;SDS011;6167;43.080;25.634;2024-03-02T02:05:18;28.50;;;19.37;;
12208;SDS011;6167;43.080;25.634;2024-03-02T02:07:45;26.70;;;18.90;;
12208;SDS011;6167;43.080;25.634;2024-03-02T02:10:12;29.07;;;20.33;;
12208;SDS011;6167;43.080;25.634;2024-03-02T02:12:39;31.73;;;21.37;;
12208;SDS011;6167;43.080;25.634;2024-03-02T02:20:43;30.23;;;20.63;;
12208;SDS011;6167;43.080;25.634;2024-03-02T02:23:11;30.90;;;20.53;;
12208;SDS011;6167;43.080;25.634;2024-03-02T02:25:38;32.83;;;22.07;;
12208;SDS011;6167;43.080;25.634;2024-03-02T02:28:05;31.70;;;21.43;;
12208;SDS011;6167;43.080;25.634;2024-03-02T02:30:32;32.67;;;21.57;;
12208;SDS011;6167;43.080;25.634;2024-03-02T02:32:58;30.43;;;20.57;;
12208;SDS011;6167;43.080;25.634;2024-03-02T02:35:25;32.20;;;21.37;;
12208;SDS011;6167;43.080;25.634;2024-03-02T02:37:52;31.07;;;21.70;;
12208;SDS011;6167;43.080;25.634;2024-03-02T02:40:20;29.37;;;20.77;;
12208;SDS011;6167;43.080;25.634;2024-03-02T02:42:47;34.03;;;22.03;;
12208;SDS011;6167;43.080;25.634;2024-03-02T02:45:13;29.43;;;21.10;;
12208;SDS011;6167;43.080;25.634;2024-03-02T02:47:40;29.03;;;21.13;;
12208;SDS011;6167;43.080;25.634;2024-03-02T02:50:07;27.70;;;19.53;;
12208;SDS011;6167;43.080;25.634;2024-03-02T02:52:34;29.77;;;20.50;;
12208;SDS011;6167;43.080;25.634;2024-03-02T02:55:03;29.40;;;20.37;;
12208;SDS011;6167;43.080;25.634;2024-03-02T02:57:31;27.97;;;20.23;;
12208;SDS011;6167;43.080;25.634;2024-03-02T03:00:01;29.83;;;20.37;;
12208;SDS011;6167;43.080;25.634;2024-03-02T03:02:29;29.70;;;20.83;;
12208;SDS011;6167;43.080;25.634;2024-03-02T03:04:55;28.43;;;21.07;;
12208;SDS011;6167;43.080;25.634;2024-03-02T03:07:22;27.77;;;21.00;;
12208;SDS011;6167;43.080;25.634;2024-03-02T03:09:48;34.43;;;22.07;;
12208;SDS011;6167;43.080;25.634;2024-03-02T03:12:14;28.30;;;20.40;;
12208;SDS011;6167;43.080;25.634;2024-03-02T03:14:42;27.43;;;20.33;;
12208;SDS011;6167;43.080;25.634;2024-03-02T03:17:09;28.50;;;19.30;;
12208;SDS011;6167;43.080;25.634;2024-03-02T03:19:37;29.73;;;20.63;;
12208;SDS011;6167;43.080;25.634;2024-03-02T03:22:04;27.93;;;20.13;;
12208;SDS011;6167;43.080;25.634;2024-03-02T03:24:30;28.23;;;19.90;;
12208;SDS011;6167;43.080;25.634;2024-03-02T03:26:58;31.73;;;20.60;;
12208;SDS011;6167;43.080;25.634;2024-03-02T03:29:24;31.00;;;22.47;;
12208;SDS011;6167;43.080;25.634;2024-03-02T03:31:52;30.77;;;21.70;;
12208;SDS011;6167;43.080;25.634;2024-03-02T03:34:19;31.93;;;21.80;;
12208;SDS011;6167;43.080;25.634;2024-03-02T03:36:45;29.07;;;21.40;;
12208;SDS011;6167;43.080;25.634;2024-03-02T03:39:12;28.60;;;21.73;;
12208;SDS011;6167;43.080;25.634;2024-03-02T03:41:40;27.47;;;21.10;;
12208;SDS011;6167;43.080;25.634;2024-03-02T03:44:06;29.97;;;21.87;;
12208;SDS011;6167;43.080;25.634;2024-03-02T03:46:33;31.20;;;21.47;;
12208;SDS011;6167;43.080;25.634;2024-03-02T03:49:01;29.10;;;21.70;;
12208;SDS011;6167;43.080;25.634;2024-03-02T03:51:29;32.33;;;22.73;;
12208;SDS011;6167;43.080;25.634;2024-03-02T03:53:55;29.73;;;22.20;;
12208;SDS011;6167;43.080;25.634;2024-03-02T03:56:22;29.83;;;21.63;;
12208;SDS011;6167;43.080;25.634;2024-03-02T03:58:48;32.10;;;21.23;;
12208;SDS011;6167;43.080;25.634;2024-03-02T04:01:15;32.50;;;22.43;;
12208;SDS011;6167;43.080;25.634;2024-03-02T04:03:41;29.77;;;21.03;;
12208;SDS011;6167;43.080;25.634;2024-03-02T04:06:09;32.07;;;22.00;;
12208;SDS011;6167;43.080;25.634;2024-03-02T04:08:36;28.63;;;20.93;;
12208;SDS011;6167;43.080;25.634;2024-03-02T04:11:03;31.10;;;21.60;;
12208;SDS011;6167;43.080;25.634;2024-03-02T04:13:29;30.17;;;20.67;;
12208;SDS011;6167;43.080;25.634;2024-03-02T04:15:56;31.10;;;21.33;;
12208;SDS011;6167;43.080;25.634;2024-03-02T04:18:22;30.60;;;20.73;;
12208;SDS011;6167;43.080;25.634;2024-03-02T04:20:49;28.37;;;20.60;;
12208;SDS011;6167;43.080;25.634;2024-03-02T04:23:17;30.07;;;20.37;;
12208;SDS011;6167;43.080;25.634;2024-03-02T04:25:43;28.20;;;20.27;;
12208;SDS011;6167;43.080;25.634;2024-03-02T04:28:10;29.50;;;20.30;;
12208;SDS011;6167;43.080;25.634;2024-03-02T04:30:37;29.23;;;20.63;;
12208;SDS011;6167;43.080;25.634;2024-03-02T04:33:04;30.20;;;19.80;;
12208;SDS011;6167;43.080;25.634;2024-03-02T04:35:32;29.77;;;20.33;;
12208;SDS011;6167;43.080;25.634;2024-03-02T04:37:59;29.10;;;20.43;;
12208;SDS011;6167;43.080;25.634;2024-03-02T04:40:27;31.67;;;21.23;;
12208;SDS011;6167;43.080;25.634;2024-03-02T04:42:53;28.57;;;20.03;;
12208;SDS011;6167;43.080;25.634;2024-03-02T04:45:20;30.97;;;20.57;;
12208;SDS011;6167;43.080;25.634;2024-03-02T04:47:46;33.50;;;20.93;;
12208;SDS011;6167;43.080;25.634;2024-03-02T04:50:13;28.13;;;21.00;;
12208;SDS011;6167;43.080;25.634;2024-03-02T04:52:39;31.37;;;20.50;;
12208;SDS011;6167;43.080;25.634;2024-03-02T04:55:06;33.63;;;21.80;;
12208;SDS011;6167;43.080;25.634;2024-03-02T04:58:11;31.40;;;22.00;;
12208;SDS011;6167;43.080;25.634;2024-03-02T05:00:38;29.63;;;21.53;;
12208;SDS011;6167;43.080;25.634;2024-03-02T05:03:05;33.20;;;22.10;;
12208;SDS011;6167;43.080;25.634;2024-03-02T05:05:31;32.77;;;22.07;;
12208;SDS011;6167;43.080;25.634;2024-03-02T05:07:58;35.03;;;22.10;;
12208;SDS011;6167;43.080;25.634;2024-03-02T05:10:24;29.80;;;21.20;;
12208;SDS011;6167;43.080;25.634;2024-03-02T05:12:51;32.53;;;21.77;;
12208;SDS011;6167;43.080;25.634;2024-03-02T05:15:25;31.03;;;21.87;;
12208;SDS011;6167;43.080;25.634;2024-03-02T05:17:52;32.97;;;21.60;;
12208;SDS011;6167;43.080;25.634;2024-03-02T05:20:19;30.23;;;20.70;;
12208;SDS011;6167;43.080;25.634;2024-03-02T05:22:45;28.03;;;20.97;;
12208;SDS011;6167;43.080;25.634;2024-03-02T05:25:12;29.63;;;21.20;;
12208;SDS011;6167;43.080;25.634;2024-03-02T05:27:39;30.10;;;20.87;;
12208;SDS011;6167;43.080;25.634;2024-03-02T05:30:06;30.40;;;21.03;;
12208;SDS011;6167;43.080;25.634;2024-03-02T05:32:35;31.50;;;21.53;;
12208;SDS011;6167;43.080;25.634;2024-03-02T05:35:02;28.43;;;20.70;;
12208;SDS011;6167;43.080;25.634;2024-03-02T05:37:30;26.27;;;17.07;;
12208;SDS011;6167;43.080;25.634;2024-03-02T05:39:56;32.07;;;20.77;;
12208;SDS011;6167;43.080;25.634;2024-03-02T05:42:24;33.90;;;22.70;;
12208;SDS011;6167;43.080;25.634;2024-03-02T05:44:52;31.00;;;20.80;;
12208;SDS011;6167;43.080;25.634;2024-03-02T05:47:18;29.93;;;20.80;;
12208;SDS011;6167;43.080;25.634;2024-03-02T05:49:46;27.97;;;19.83;;
12208;SDS011;6167;43.080;25.634;2024-03-02T05:52:12;27.23;;;21.30;;
12208;SDS011;6167;43.080;25.634;2024-03-02T05:54:39;28.83;;;19.30;;
12208;SDS011;6167;43.080;25.634;2024-03-02T05:57:05;30.47;;;19.13;;
12208;SDS011;6167;43.080;25.634;2024-03-02T05:59:52;32.77;;;20.47;;
12208;SDS011;6167;43.080;25.634;2024-03-02T06:02:19;26.77;;;19.40;;
12208;SDS011;6167;43.080;25.634;2024-03-02T06:04:49;31.60;;;20.80;;
12208;SDS011;6167;43.080;25.634;2024-03-02T06:07:15;28.93;;;21.20;;
12208;SDS011;6167;43.080;25.634;2024-03-02T06:09:42;29.10;;;21.13;;
12208;SDS011;6167;43.080;25.634;2024-03-02T06:12:09;28.87;;;19.87;;
12208;SDS011;6167;43.080;25.634;2024-03-02T06:14:36;29.70;;;20.47;;
12208;SDS011;6167;43.080;25.634;2024-03-02T06:17:03;31.90;;;20.03;;
12208;SDS011;6167;43.080;25.634;2024-03-02T06:19:30;28.77;;;20.20;;
12208;SDS011;6167;43.080;25.634;2024-03-02T06:21:58;26.70;;;19.70;;
12208;SDS011;6167;43.080;25.634;2024-03-02T06:24:25;30.03;;;20.30;;
12208;SDS011;6167;43.080;25.634;2024-03-02T06:26:51;32.33;;;20.40;;
12208;SDS011;6167;43.080;25.634;2024-03-02T06:29:18;29.53;;;21.37;;
12208;SDS011;6167;43.080;25.634;2024-03-02T06:31:44;32.33;;;22.30;;
12208;SDS011;6167;43.080;25.634;2024-03-02T06:34:11;33.53;;;22.50;;
12208;SDS011;6167;43.080;25.634;2024-03-02T06:36:38;33.70;;;22.03;;
12208;SDS011;6167;43.080;25.634;2024-03-02T06:39:06;29.53;;;20.33;;
12208;SDS011;6167;43.080;25.634;2024-03-02T06:41:33;29.07;;;21.20;;
12208;SDS011;6167;43.080;25.634;2024-03-02T06:44:00;29.13;;;19.53;;
12208;SDS011;6167;43.080;25.634;2024-03-02T06:46:26;30.20;;;20.40;;
12208;SDS011;6167;43.080;25.634;2024-03-02T06:48:53;29.87;;;21.03;;
12208;SDS011;6167;43.080;25.634;2024-03-02T06:51:19;32.50;;;21.67;;
12208;SDS011;6167;43.080;25.634;2024-03-02T06:53:46;27.00;;;19.67;;
12208;SDS011;6167;43.080;25.634;2024-03-02T06:56:14;33.33;;;21.37;;
12208;SDS011;6167;43.080;25.634;2024-03-02T06:58:40;28.70;;;20.40;;
12208;SDS011;6167;43.080;25.634;2024-03-02T07:01:08;30.50;;;19.80;;
12208;SDS011;6167;43.080;25.634;2024-03-02T07:03:35;30.03;;;21.30;;
12208;SDS011;6167;43.080;25.634;2024-03-02T07:06:00;30.90;;;21.57;;
12208;SDS011;6167;43.080;25.634;2024-03-02T07:08:27;32.90;;;22.17;;
12208;SDS011;6167;43.080;25.634;2024-03-02T07:10:54;29.37;;;20.57;;
12208;SDS011;6167;43.080;25.634;2024-03-02T07:13:22;26.30;;;20.13;;
12208;SDS011;6167;43.080;25.634;2024-03-02T07:15:49;28.40;;;18.87;;
12208;SDS011;6167;43.080;25.634;2024-03-02T07:18:40;28.13;;;20.23;;
12208;SDS011;6167;43.080;25.634;2024-03-02T07:21:10;26.03;;;18.60;;
12208;SDS011;6167;43.080;25.634;2024-03-02T07:23:36;28.17;;;19.63;;
12208;SDS011;6167;43.080;25.634;2024-03-02T07:26:03;25.97;;;18.80;;
12208;SDS011;6167;43.080;25.634;2024-03-02T07:28:32;25.57;;;18.70;;
12208;SDS011;6167;43.080;25.634;2024-03-02T07:30:59;24.70;;;17.93;;
12208;SDS011;6167;43.080;25.634;2024-03-02T07:33:26;24.97;;;19.27;;
12208;SDS011;6167;43.080;25.634;2024-03-02T07:35:52;25.73;;;18.37;;
12208;SDS011;6167;43.080;25.634;2024-03-02T07:38:20;24.33;;;18.13;;
12208;SDS011;6167;43.080;25.634;2024-03-02T07:40:47;26.93;;;17.67;;
12208;SDS011;6167;43.080;25.634;2024-03-02T07:43:15;24.23;;;17.07;;
12208;SDS011;6167;43.080;25.634;2024-03-02T07:45:43;24.43;;;17.50;;
12208;SDS011;6167;43.080;25.634;2024-03-02T07:48:10;23.80;;;16.70;;
12208;SDS011;6167;43.080;25.634;2024-03-02T07:50:36;24.60;;;16.30;;
12208;SDS011;6167;43.080;25.634;2024-03-02T07:53:04;35.73;;;27.50;;
12208;SDS011;6167;43.080;25.634;2024-03-02T07:55:31;26.33;;;18.93;;
12208;SDS011;6167;43.080;25.634;2024-03-02T07:57:57;26.53;;;17.93;;
12208;SDS011;6167;43.080;25.634;2024-03-02T08:00:24;22.30;;;16.97;;
12208;SDS011;6167;43.080;25.634;2024-03-02T08:02:52;23.37;;;17.47;;
12208;SDS011;6167;43.080;25.634;2024-03-02T08:05:19;23.03;;;15.80;;
12208;SDS011;6167;43.080;25.634;2024-03-02T08:07:45;22.23;;;16.10;;
12208;SDS011;6167;43.080;25.634;2024-03-02T08:10:12;21.37;;;16.27;;
12208;SDS011;6167;43.080;25.634;2024-03-02T08:12:39;19.43;;;15.47;;
12208;SDS011;6167;43.080;25.634;2024-03-02T08:15:06;21.70;;;17.00;;
12208;SDS011;6167;43.080;25.634;2024-03-02T08:17:32;21.90;;;16.47;;
12208;SDS011;6167;43.080;25.634;2024-03-02T08:20:00;24.17;;;16.83;;
12208;SDS011;6167;43.080;25.634;2024-03-02T08:22:27;23.70;;;16.27;;
12208;SDS011;6167;43.080;25.634;2024-03-02T08:24:54;21.63;;;16.90;;
12208;SDS011;6167;43.080;25.634;2024-03-02T08:27:20;23.20;;;16.83;;
12208;SDS011;6167;43.080;25.634;2024-03-02T08:29:47;20.87;;;16.07;;
12208;SDS011;6167;43.080;25.634;2024-03-02T08:32:15;22.57;;;15.60;;
12208;SDS011;6167;43.080;25.634;2024-03-02T08:34:42;21.50;;;16.33;;
12208;SDS011;6167;43.080;25.634;2024-03-02T08:37:10;20.73;;;14.60;;
12208;SDS011;6167;43.080;25.634;2024-03-02T08:39:37;17.83;;;14.17;;
12208;SDS011;6167;43.080;25.634;2024-03-02T08:42:03;19.90;;;14.60;;
12208;SDS011;6167;43.080;25.634;2024-03-02T08:44:30;19.83;;;13.93;;
12208;SDS011;6167;43.080;25.634;2024-03-02T08:46:58;18.57;;;13.83;;
12208;SDS011;6167;43.080;25.634;2024-03-02T08:49:25;16.67;;;13.03;;
12208;SDS011;6167;43.080;25.634;2024-03-02T08:51:52;18.23;;;13.97;;
12208;SDS011;6167;43.080;25.634;2024-03-02T08:54:21;17.80;;;13.77;;
12208;SDS011;6167;43.080;25.634;2024-03-02T08:56:48;20.40;;;15.10;;
12208;SDS011;6167;43.080;25.634;2024-03-02T08:59:15;22.00;;;15.30;;
12208;SDS011;6167;43.080;25.634;2024-03-02T09:01:41;22.33;;;16.57;;
12208;SDS011;6167;43.080;25.634;2024-03-02T09:04:08;22.33;;;15.17;;
12208;SDS011;6167;43.080;25.634;2024-03-02T09:06:35;20.53;;;15.90;;
12208;SDS011;6167;43.080;25.634;2024-03-02T09:09:03;20.37;;;15.53;;
12208;SDS011;6167;43.080;25.634;2024-03-02T09:11:33;19.07;;;14.90;;
12208;SDS011;6167;43.080;25.634;2024-03-02T09:14:00;17.90;;;14.87;;
12208;SDS011;6167;43.080;25.634;2024-03-02T09:16:26;16.87;;;14.40;;
12208;SDS011;6167;43.080;25.634;2024-03-02T09:18:55;20.77;;;14.97;;
12208;SDS011;6167;43.080;25.634;2024-03-02T09:21:22;23.47;;;16.83;;
12208;SDS011;6167;43.080;25.634;2024-03-02T09:23:50;23.20;;;17.63;;
12208;SDS011;6167;43.080;25.634;2024-03-02T09:26:17;22.07;;;16.97;;
12208;SDS011;6167;43.080;25.634;2024-03-02T09:28:46;21.27;;;16.97;;
12208;SDS011;6167;43.080;25.634;2024-03-02T09:31:12;18.77;;;15.57;;
12208;SDS011;6167;43.080;25.634;2024-03-02T09:33:39;22.37;;;15.70;;
12208;SDS011;6167;43.080;25.634;2024-03-02T09:36:06;20.00;;;15.73;;
12208;SDS011;6167;43.080;25.634;2024-03-02T09:38:32;20.60;;;15.30;;
12208;SDS011;6167;43.080;25.634;2024-03-02T09:41:00;20.67;;;15.77;;
12208;SDS011;6167;43.080;25.634;2024-03-02T09:43:27;22.87;;;16.53;;
12208;SDS011;6167;43.080;25.634;2024-03-02T09:45:55;18.33;;;15.50;;
12208;SDS011;6167;43.080;25.634;2024-03-02T09:48:21;20.37;;;15.33;;
12208;SDS011;6167;43.080;25.634;2024-03-02T09:50:48;16.97;;;13.63;;
12208;SDS011;6167;43.080;25.634;2024-03-02T09:53:15;17.37;;;13.50;;
12208;SDS011;6167;43.080;25.634;2024-03-02T09:55:44;18.50;;;14.37;;
12208;SDS011;6167;43.080;25.634;2024-03-02T09:58:12;19.47;;;14.80;;
12208;SDS011;6167;43.080;25.634;2024-03-02T10:00:38;17.97;;;13.33;;
12208;SDS011;6167;43.080;25.634;2024-03-02T10:03:06;19.90;;;13.23;;
12208;SDS011;6167;43.080;25.634;2024-03-02T10:05:37;18.70;;;14.83;;
12208;SDS011;6167;43.080;25.634;2024-03-02T10:08:04;17.93;;;13.67;;
12208;SDS011;6167;43.080;25.634;2024-03-02T10:10:35;18.47;;;14.20;;
12208;SDS011;6167;43.080;25.634;2024-03-02T10:13:05;20.67;;;14.50;;
12208;SDS011;6167;43.080;25.634;2024-03-02T10:15:32;21.83;;;14.07;;
12208;SDS011;6167;43.080;25.634;2024-03-02T10:17:58;17.80;;;14.17;;
12208;SDS011;6167;43.080;25.634;2024-03-02T10:20:27;19.17;;;14.93;;
12208;SDS011;6167;43.080;25.634;2024-03-02T10:22:54;17.53;;;14.13;;
12208;SDS011;6167;43.080;25.634;2024-03-02T10:25:30;124.97;;;63.57;;
12208;SDS011;6167;43.080;25.634;2024-03-02T10:27:57;27.77;;;18.93;;
12208;SDS011;6167;43.080;25.634;2024-03-02T10:30:24;30.93;;;23.37;;
12208;SDS011;6167;43.080;25.634;2024-03-02T10:32:52;21.40;;;15.73;;
12208;SDS011;6167;43.080;25.634;2024-03-02T10:35:19;22.63;;;14.80;;
12208;SDS011;6167;43.080;25.634;2024-03-02T10:37:48;17.57;;;14.30;;
12208;SDS011;6167;43.080;25.634;2024-03-02T10:40:16;17.97;;;14.27;;
12208;SDS011;6167;43.080;25.634;2024-03-02T10:42:42;16.33;;;13.53;;
12208;SDS011;6167;43.080;25.634;2024-03-02T10:45:10;15.13;;;12.70;;
12208;SDS011;6167;43.080;25.634;2024-03-02T10:47:38;19.23;;;12.97;;
12208;SDS011;6167;43.080;25.634;2024-03-02T10:50:05;19.20;;;12.13;;
12208;SDS011;6167;43.080;25.634;2024-03-02T10:52:34;20.17;;;13.43;;
12208;SDS011;6167;43.080;25.634;2024-03-02T10:55:02;19.60;;;13.37;;
12208;SDS011;6167;43.080;25.634;2024-03-02T10:57:32;18.08;;;13.10;;
12208;SDS011;6167;43.080;25.634;2024-03-02T11:00:01;16.23;;;13.30;;
12208;SDS011;6167;43.080;25.634;2024-03-02T11:02:29;16.63;;;13.30;;
12208;SDS011;6167;43.080;25.634;2024-03-02T11:04:57;18.40;;;13.57;;
12208;SDS011;6167;43.080;25.634;2024-03-02T11:07:26;17.10;;;12.90;;
12208;SDS011;6167;43.080;25.634;2024-03-02T11:09:54;20.13;;;12.90;;
12208;SDS011;6167;43.080;25.634;2024-03-02T11:12:27;18.83;;;13.90;;
12208;SDS011;6167;43.080;25.634;2024-03-02T11:14:54;22.63;;;14.67;;
12208;SDS011;6167;43.080;25.634;2024-03-02T11:17:21;17.23;;;12.80;;
12208;SDS011;6167;43.080;25.634;2024-03-02T11:19:50;19.40;;;14.10;;
12208;SDS011;6167;43.080;25.634;2024-03-02T11:22:16;19.07;;;12.93;;
12208;SDS011;6167;43.080;25.634;2024-03-02T11:24:47;15.70;;;12.37;;
12208;SDS011;6167;43.080;25.634;2024-03-02T11:27:14;15.67;;;12.07;;
12208;SDS011;6167;43.080;25.634;2024-03-02T11:29:46;18.07;;;12.97;;
12208;SDS011;6167;43.080;25.634;2024-03-02T11:32:15;21.92;;;13.82;;
12208;SDS011;6167;43.080;25.634;2024-03-02T11:34:40;20.53;;;13.73;;
12208;SDS011;6167;43.080;25.634;2024-03-02T11:37:10;23.80;;;13.57;;
12208;SDS011;6167;43.080;25.634;2024-03-02T11:39:37;24.27;;;14.47;;
12208;SDS011;6167;43.080;25.634;2024-03-02T11:42:05;21.75;;;14.57;;
12208;SDS011;6167;43.080;25.634;2024-03-02T11:44:32;19.57;;;13.60;;
12208;SDS011;6167;43.080;25.634;2024-03-02T11:47:01;19.73;;;14.30;;
12208;SDS011;6167;43.080;25.634;2024-03-02T11:49:36;14.70;;;12.13;;
12208;SDS011;6167;43.080;25.634;2024-03-02T11:52:03;14.90;;;13.13;;
12208;SDS011;6167;43.080;25.634;2024-03-02T11:54:31;21.30;;;13.00;;
12208;SDS011;6167;43.080;25.634;2024-03-02T11:56:58;17.07;;;13.13;;
12208;SDS011;6167;43.080;25.634;2024-03-02T11:59:26;19.70;;;12.48;;
12208;SDS011;6167;43.080;25.634;2024-03-02T12:01:52;18.50;;;12.77;;
12208;SDS011;6167;43.080;25.634;2024-03-02T12:04:21;19.27;;;14.10;;
12208;SDS011;6167;43.080;25.634;2024-03-02T12:06:48;19.00;;;13.40;;
12208;SDS011;6167;43.080;25.634;2024-03-02T12:09:15;16.20;;;12.82;;
12208;SDS011;6167;43.080;25.634;2024-03-02T12:11:42;17.85;;;12.70;;
12208;SDS011;6167;43.080;25.634;2024-03-02T12:14:10;20.85;;;16.30;;
12208;SDS011;6167;43.080;25.634;2024-03-02T12:16:38;18.80;;;12.80;;
12208;SDS011;6167;43.080;25.634;2024-03-02T12:19:05;17.85;;;14.10;;
12208;SDS011;6167;43.080;25.634;2024-03-02T12:21:33;19.88;;;13.50;;
12208;SDS011;6167;43.080;25.634;2024-03-02T12:23:59;21.00;;;15.65;;
12208;SDS011;6167;43.080;25.634;2024-03-02T12:26:28;16.30;;;12.83;;
12208;SDS011;6167;43.080;25.634;2024-03-02T12:28:55;19.57;;;14.53;;
12208;SDS011;6167;43.080;25.634;2024-03-02T12:31:22;16.73;;;13.57;;
12208;SDS011;6167;43.080;25.634;2024-03-02T12:33:48;16.10;;;13.00;;
12208;SDS011;6167;43.080;25.634;2024-03-02T12:36:15;15.67;;;12.87;;
12208;SDS011;6167;43.080;25.634;2024-03-02T12:38:44;14.40;;;11.77;;
12208;SDS011;6167;43.080;25.634;2024-03-02T12:41:14;18.53;;;13.20;;
12208;SDS011;6167;43.080;25.634;2024-03-02T12:43:40;18.17;;;12.73;;
12208;SDS011;6167;43.080;25.634;2024-03-02T12:46:07;18.43;;;12.97;;
12208;SDS011;6167;43.080;25.634;2024-03-02T12:48:34;21.37;;;13.60;;
12208;SDS011;6167;43.080;25.634;2024-03-02T12:51:01;19.10;;;13.10;;
12208;SDS011;6167;43.080;25.634;2024-03-02T12:53:27;20.13;;;13.47;;
12208;SDS011;6167;43.080;25.634;2024-03-02T12:55:56;18.97;;;13.90;;
12208;SDS011;6167;43.080;25.634;2024-03-02T12:58:23;17.70;;;12.97;;
12208;SDS011;6167;43.080;25.634;2024-03-02T13:00:49;21.13;;;13.33;;
12208;SDS011;6167;43.080;25.634;2024-03-02T13:03:17;16.43;;;12.90;;
12208;SDS011;6167;43.080;25.634;2024-03-02T13:05:48;17.43;;;12.63;;
12208;SDS011;6167;43.080;25.634;2024-03-02T13:08:14;18.50;;;13.30;;
12208;SDS011;6167;43.080;25.634;2024-03-02T13:10:41;20.87;;;13.30;;
12208;SDS011;6167;43.080;25.634;2024-03-02T13:13:09;20.30;;;13.37;;
12208;SDS011;6167;43.080;25.634;2024-03-02T13:15:35;18.50;;;13.33;;
12208;SDS011;6167;43.080;25.634;2024-03-02T13:18:02;18.33;;;13.13;;
12208;SDS011;6167;43.080;25.634;2024-03-02T13:20:30;18.80;;;12.67;;
12208;SDS011;6167;43.080;25.634;2024-03-02T13:22:56;23.50;;;14.37;;
12208;SDS011;6167;43.080;25.634;2024-03-02T13:25:23;17.07;;;13.30;;
12208;SDS011;6167;43.080;25.634;2024-03-02T13:27:49;18.43;;;13.17;;
12208;SDS011;6167;43.080;25.634;2024-03-02T13:30:18;19.30;;;13.53;;
12208;SDS011;6167;43.080;25.634;2024-03-02T13:32:44;19.33;;;14.73;;
12208;SDS011;6167;43.080;25.634;2024-03-02T13:35:11;20.90;;;13.60;;
12208;SDS011;6167;43.080;25.634;2024-03-02T13:37:37;20.53;;;14.10;;
12208;SDS011;6167;43.080;25.634;2024-03-02T13:40:04;20.03;;;14.20;;
12208;SDS011;6167;43.080;25.634;2024-03-02T13:42:31;20.70;;;14.47;;
12208;SDS011;6167;43.080;25.634;2024-03-02T13:44:57;19.07;;;14.00;;
12208;SDS011;6167;43.080;25.634;2024-03-02T13:47:25;17.07;;;14.43;;
12208;SDS011;6167;43.080;25.634;2024-03-02T13:49:52;18.73;;;14.37;;
12208;SDS011;6167;43.080;25.634;2024-03-02T13:52:19;19.63;;;15.00;;
12208;SDS011;6167;43.080;25.634;2024-03-02T13:54:46;22.87;;;15.10;;
12208;SDS011;6167;43.080;25.634;2024-03-02T13:57:13;20.13;;;14.73;;
12208;SDS011;6167;43.080;25.634;2024-03-02T13:59:40;18.97;;;14.97;;
12208;SDS011;6167;43.080;25.634;2024-03-02T14:02:07;21.93;;;15.10;;
12208;SDS011;6167;43.080;25.634;2024-03-02T14:04:35;20.23;;;14.37;;
12208;SDS011;6167;43.080;25.634;2024-03-02T14:07:02;20.70;;;14.57;;
12208;SDS011;6167;43.080;25.634;2024-03-02T14:09:29;20.67;;;15.33;;
12208;SDS011;6167;43.080;25.634;2024-03-02T14:11:56;20.13;;;15.43;;
12208;SDS011;6167;43.080;25.634;2024-03-02T14:14:22;19.30;;;15.33;;
12208;SDS011;6167;43.080;25.634;2024-03-02T14:16:49;22.10;;;16.23;;
12208;SDS011;6167;43.080;25.634;2024-03-02T14:19:16;24.13;;;15.80;;
12208;SDS011;6167;43.080;25.634;2024-03-02T14:21:44;24.30;;;15.80;;
12208;SDS011;6167;43.080;25.634;2024-03-02T14:24:10;21.37;;;16.07;;
12208;SDS011;6167;43.080;25.634;2024-03-02T14:26:37;19.87;;;15.50;;
12208;SDS011;6167;43.080;25.634;2024-03-02T14:29:03;20.27;;;14.70;;